sensor_id;sensor_type;location;lat;lon;timestamp;pressure;altitude;pressure_sealevel;temperature;humidity
12969;BME280;6549;53.128;8.182;2023-03-23T00:00:53;99976.25;;;10.40;100.00
12969;BME280;6549;53.128;8.182;2023-03-23T00:03:54;99989.63;;;10.30;100.00
12969;BME280;6549;53.128;8.182;2023-03-23T00:06:57;99991.19;;;10.31;100.00
12969;BME280;6549;53.128;8.182;2023-03-23T00:09:57;99977.06;;;10.33;100.00
12969;BME280;6549;53.128;8.182;2023-03-23T00:12:57;99966.84;;;10.33;100.00
12969;BME280;6549;53.128;8.182;2023-03-23T00:16:02;99964.50;;;10.35;100.00
12969;BME280;6549;53.128;8.182;2023-03-23T00:19:09;99954.69;;;10.34;100.00
12969;BME280;6549;53.128;8.182;2023-03-23T00:22:14;99947.22;;;10.39;100.00
12969;BME280;6549;53.128;8.182;2023-03-23T00:25:14;99946.03;;;10.40;100.00
12969;BME280;6549;53.128;8.182;2023-03-23T00:28:16;99940.13;;;10.41;100.00
12969;BME280;6549;53.128;8.182;2023-03-23T00:31:18;99938.56;;;10.40;100.00
12969;BME280;6549;53.128;8.182;2023-03-23T00:34:21;99939.34;;;10.44;100.00
12969;BME280;6549;53.128;8.182;2023-03-23T00:37:21;99923.56;;;10.52;100.00
12969;BME280;6549;53.128;8.182;2023-03-23T00:40:22;99932.63;;;10.45;100.00
12969;BME280;6549;53.128;8.182;2023-03-23T00:43:23;99922.84;;;10.44;100.00
12969;BME280;6549;53.128;8.182;2023-03-23T00:46:24;99915.75;;;10.47;100.00
12969;BME280;6549;53.128;8.182;2023-03-23T00:49:25;99909.09;;;10.48;100.00
12969;BME280;6549;53.128;8.182;2023-03-23T00:52:25;99917.69;;;10.50;100.00
12969;BME280;6549;53.128;8.182;2023-03-23T00:55:26;99908.66;;;10.49;100.00
12969;BME280;6549;53.128;8.182;2023-03-23T00:58:26;99908.69;;;10.46;100.00
12969;BME280;6549;53.128;8.182;2023-03-23T01:01:26;99897.72;;;10.46;100.00
12969;BME280;6549;53.128;8.182;2023-03-23T01:04:27;99903.16;;;10.49;100.00
12969;BME280;6549;53.128;8.182;2023-03-23T01:07:28;99896.09;;;10.52;100.00
12969;BME280;6549;53.128;8.182;2023-03-23T01:10:31;99895.34;;;10.48;100.00
12969;BME280;6549;53.128;8.182;2023-03-23T01:13:32;99891.44;;;10.45;100.00
12969;BME280;6549;53.128;8.182;2023-03-23T01:16:33;99879.66;;;10.45;100.00
12969;BME280;6549;53.128;8.182;2023-03-23T01:19:33;99885.91;;;10.52;100.00
12969;BME280;6549;53.128;8.182;2023-03-23T01:22:33;99898.44;;;10.53;100.00
12969;BME280;6549;53.128;8.182;2023-03-23T01:25:35;99887.81;;;10.55;100.00
12969;BME280;6549;53.128;8.182;2023-03-23T01:28:37;99886.63;;;10.56;100.00
12969;BME280;6549;53.128;8.182;2023-03-23T01:31:37;99896.03;;;10.59;100.00
12969;BME280;6549;53.128;8.182;2023-03-23T01:34:37;99886.25;;;10.54;100.00
12969;BME280;6549;53.128;8.182;2023-03-23T01:37:38;99885.84;;;10.56;100.00
12969;BME280;6549;53.128;8.182;2023-03-23T01:40:38;99888.22;;;10.54;100.00
12969;BME280;6549;53.128;8.182;2023-03-23T01:44:05;99871.31;;;10.59;100.00
12969;BME280;6549;53.128;8.182;2023-03-23T01:47:06;99879.53;;;10.59;100.00
12969;BME280;6549;53.128;8.182;2023-03-23T01:50:06;99863.81;;;10.63;100.00
12969;BME280;6549;53.128;8.182;2023-03-23T01:53:08;99870.88;;;10.64;100.00
12969;BME280;6549;53.128;8.182;2023-03-23T01:56:12;99859.09;;;10.63;100.00
12969;BME280;6549;53.128;8.182;2023-03-23T01:59:14;99829.22;;;10.69;100.00
12969;BME280;6549;53.128;8.182;2023-03-23T02:02:16;99815.88;;;10.67;100.00
12969;BME280;6549;53.128;8.182;2023-03-23T02:05:30;99823.31;;;10.70;100.00
12969;BME280;6549;53.128;8.182;2023-03-23T02:08:33;99809.44;;;10.81;100.00
12969;BME280;6549;53.128;8.182;2023-03-23T02:11:34;99810.31;;;10.74;100.00
12969;BME280;6549;53.128;8.182;2023-03-23T02:14:34;99789.13;;;10.75;100.00
12969;BME280;6549;53.128;8.182;2023-03-23T02:17:50;99779.59;;;10.83;100.00
12969;BME280;6549;53.128;8.182;2023-03-23T02:20:57;99794.13;;;10.80;100.00
12969;BME280;6549;53.128;8.182;2023-03-23T02:31:09;99816.22;;;10.73;100.00
12969;BME280;6549;53.128;8.182;2023-03-23T02:34:32;99815.88;;;10.67;100.00
12969;BME280;6549;53.128;8.182;2023-03-23T02:37:40;99791.09;;;10.74;100.00
12969;BME280;6549;53.128;8.182;2023-03-23T02:40:47;99786.88;;;10.66;100.00
12969;BME280;6549;53.128;8.182;2023-03-23T02:43:49;99795.91;;;10.63;100.00
12969;BME280;6549;53.128;8.182;2023-03-23T02:46:51;99783.69;;;10.68;100.00
12969;BME280;6549;53.128;8.182;2023-03-23T02:49:53;99797.06;;;10.66;100.00
12969;BME280;6549;53.128;8.182;2023-03-23T02:52:55;99789.22;;;10.64;100.00
12969;BME280;6549;53.128;8.182;2023-03-23T02:55:59;99790.06;;;10.61;100.00
12969;BME280;6549;53.128;8.182;2023-03-23T02:59:02;99774.38;;;10.58;100.00
12969;BME280;6549;53.128;8.182;2023-03-23T03:02:12;99769.25;;;10.60;100.00
12969;BME280;6549;53.128;8.182;2023-03-23T03:05:32;99770.09;;;10.57;100.00
12969;BME280;6549;53.128;8.182;2023-03-23T03:09:24;99772.44;;;10.55;100.00
12969;BME280;6549;53.128;8.182;2023-03-23T03:12:45;99775.19;;;10.55;100.00
12969;BME280;6549;53.128;8.182;2023-03-23T03:15:59;99755.13;;;10.62;100.00
12969;BME280;6549;53.128;8.182;2023-03-23T03:22:26;99750.06;;;10.57;100.00
12969;BME280;6549;53.128;8.182;2023-03-23T03:25:29;99754.41;;;10.54;100.00
12969;BME280;6549;53.128;8.182;2023-03-23T03:28:29;99761.41;;;10.59;100.00
12969;BME280;6549;53.128;8.182;2023-03-23T03:31:38;99770.03;;;10.61;100.00
12969;BME280;6549;53.128;8.182;2023-03-23T03:34:39;99759.50;;;10.56;100.00
12969;BME280;6549;53.128;8.182;2023-03-23T03:37:40;99762.97;;;10.60;100.00
12969;BME280;6549;53.128;8.182;2023-03-23T03:40:40;99759.84;;;10.61;100.00
12969;BME280;6549;53.128;8.182;2023-03-23T03:43:41;99765.34;;;10.58;100.00
12969;BME280;6549;53.128;8.182;2023-03-23T03:46:41;99765.44;;;10.51;100.00
12969;BME280;6549;53.128;8.182;2023-03-23T03:49:41;99758.75;;;10.52;100.00
12969;BME280;6549;53.128;8.182;2023-03-23T03:52:42;99754.78;;;10.56;100.00
12969;BME280;6549;53.128;8.182;2023-03-23T03:55:43;99760.22;;;10.60;100.00
12969;BME280;6549;53.128;8.182;2023-03-23T03:58:45;99764.16;;;10.59;100.00
12969;BME280;6549;53.128;8.182;2023-03-23T04:01:45;99762.19;;;10.59;100.00
12969;BME280;6549;53.128;8.182;2023-03-23T04:04:47;99764.59;;;10.57;100.00
12969;BME280;6549;53.128;8.182;2023-03-23T04:07:48;99765.78;;;10.56;100.00
12969;BME280;6549;53.128;8.182;2023-03-23T04:10:51;99769.75;;;10.52;100.00
12969;BME280;6549;53.128;8.182;2023-03-23T04:13:52;99757.53;;;10.56;100.00
12969;BME280;6549;53.128;8.182;2023-03-23T04:16:52;99761.41;;;10.59;100.00
12969;BME280;6549;53.128;8.182;2023-03-23T04:19:57;99751.59;;;10.61;100.00
12969;BME280;6549;53.128;8.182;2023-03-23T04:22:57;99748.41;;;10.66;100.00
12969;BME280;6549;53.128;8.182;2023-03-23T04:25:57;99747.22;;;10.64;100.00
12969;BME280;6549;53.128;8.182;2023-03-23T04:28:58;99741.78;;;10.60;100.00
12969;BME280;6549;53.128;8.182;2023-03-23T04:32:00;99746.13;;;10.58;100.00
12969;BME280;6549;53.128;8.182;2023-03-23T04:35:01;99746.06;;;10.65;100.00
12969;BME280;6549;53.128;8.182;2023-03-23T04:38:02;99742.19;;;10.59;100.00
12969;BME280;6549;53.128;8.182;2023-03-23T04:41:02;99743.75;;;10.60;100.00
12969;BME280;6549;53.128;8.182;2023-03-23T04:44:04;99752.44;;;10.55;100.00
12969;BME280;6549;53.128;8.182;2023-03-23T04:47:05;99744.56;;;10.57;100.00
12969;BME280;6549;53.128;8.182;2023-03-23T04:50:11;99740.72;;;10.51;100.00
12969;BME280;6549;53.128;8.182;2023-03-23T04:53:14;99738.75;;;10.51;100.00
12969;BME280;6549;53.128;8.182;2023-03-23T04:56:17;99733.59;;;10.57;100.00
12969;BME280;6549;53.128;8.182;2023-03-23T04:59:18;99731.56;;;10.61;100.00
12969;BME280;6549;53.128;8.182;2023-03-23T05:02:18;99717.75;;;10.68;100.00
12969;BME280;6549;53.128;8.182;2023-03-23T05:05:20;99728.09;;;10.57;100.00
12969;BME280;6549;53.128;8.182;2023-03-23T05:08:22;99741.00;;;10.60;100.00
12969;BME280;6549;53.128;8.182;2023-03-23T05:11:23;99726.94;;;10.54;100.00
12969;BME280;6549;53.128;8.182;2023-03-23T05:14:23;99718.72;;;10.51;100.00
12969;BME280;6549;53.128;8.182;2023-03-23T05:17:24;99717.59;;;10.48;100.00
12969;BME280;6549;53.128;8.182;2023-03-23T05:20:24;99718.03;;;10.43;100.00
12969;BME280;6549;53.128;8.182;2023-03-23T05:23:25;99707.06;;;10.43;100.00
12969;BME280;6549;53.128;8.182;2023-03-23T05:26:25;99714.13;;;10.41;100.00
12969;BME280;6549;53.128;8.182;2023-03-23T05:29:29;99717.72;;;10.38;100.00
12969;BME280;6549;53.128;8.182;2023-03-23T05:32:30;99712.59;;;10.36;100.00
12969;BME280;6549;53.128;8.182;2023-03-23T05:35:31;99726.69;;;10.42;100.00
12969;BME280;6549;53.128;8.182;2023-03-23T05:38:31;99714.91;;;10.41;100.00
12969;BME280;6549;53.128;8.182;2023-03-23T05:41:31;99715.25;;;10.47;100.00
12969;BME280;6549;53.128;8.182;2023-03-23T05:44:33;99714.97;;;10.38;100.00
12969;BME280;6549;53.128;8.182;2023-03-23T05:47:34;99716.56;;;10.35;100.00
12969;BME280;6549;53.128;8.182;2023-03-23T05:50:34;99724.72;;;10.42;100.00
12969;BME280;6549;53.128;8.182;2023-03-23T05:53:34;99723.53;;;10.43;100.00
12969;BME280;6549;53.128;8.182;2023-03-23T05:56:36;99728.59;;;10.45;100.00
12969;BME280;6549;53.128;8.182;2023-03-23T05:59:36;99729.72;;;10.51;100.00
12969;BME280;6549;53.128;8.182;2023-03-23T06:02:36;99732.84;;;10.53;100.00
12969;BME280;6549;53.128;8.182;2023-03-23T06:05:44;99736.28;;;10.60;100.00
12969;BME280;6549;53.128;8.182;2023-03-23T06:08:45;99744.47;;;10.64;100.00
12969;BME280;6549;53.128;8.182;2023-03-23T06:11:45;99742.47;;;10.68;100.00
12969;BME280;6549;53.128;8.182;2023-03-23T06:14:48;99740.06;;;10.73;100.00
12969;BME280;6549;53.128;8.182;2023-03-23T06:17:48;99735.97;;;10.85;100.00
12969;BME280;6549;53.128;8.182;2023-03-23T06:20:50;99744.22;;;10.85;100.00
12969;BME280;6549;53.128;8.182;2023-03-23T06:23:51;99757.19;;;10.85;100.00
12969;BME280;6549;53.128;8.182;2023-03-23T06:26:51;99761.53;;;10.82;100.00
12969;BME280;6549;53.128;8.182;2023-03-23T06:29:51;99771.03;;;10.77;100.00
12969;BME280;6549;53.128;8.182;2023-03-23T06:32:53;99784.03;;;10.73;100.00
12969;BME280;6549;53.128;8.182;2023-03-23T06:35:53;99774.25;;;10.69;100.00
12969;BME280;6549;53.128;8.182;2023-03-23T06:38:54;99786.09;;;10.66;100.00
12969;BME280;6549;53.128;8.182;2023-03-23T06:41:56;99795.91;;;10.63;100.00
12969;BME280;6549;53.128;8.182;2023-03-23T06:44:57;99843.00;;;10.65;100.00
12969;BME280;6549;53.128;8.182;2023-03-23T06:47:57;99827.28;;;10.66;100.00
12969;BME280;6549;53.128;8.182;2023-03-23T06:50:57;99835.09;;;10.67;100.00
12969;BME280;6549;53.128;8.182;2023-03-23T06:53:58;99837.13;;;10.63;100.00
12969;BME280;6549;53.128;8.182;2023-03-23T06:56:58;99829.31;;;10.58;100.00
12969;BME280;6549;53.128;8.182;2023-03-23T06:59:59;99830.97;;;10.52;100.00
12969;BME280;6549;53.128;8.182;2023-03-23T07:02:59;99829.88;;;10.43;100.00
12969;BME280;6549;53.128;8.182;2023-03-23T07:05:59;99829.50;;;10.37;100.00
12969;BME280;6549;53.128;8.182;2023-03-23T07:09:00;99822.56;;;10.25;100.00
12969;BME280;6549;53.128;8.182;2023-03-23T07:12:00;99817.88;;;10.22;100.00
12969;BME280;6549;53.128;8.182;2023-03-23T07:15:02;99825.00;;;10.16;100.00
12969;BME280;6549;53.128;8.182;2023-03-23T07:18:02;99828.94;;;10.12;100.00
12969;BME280;6549;53.128;8.182;2023-03-23T07:21:03;99829.31;;;10.10;100.00
12969;BME280;6549;53.128;8.182;2023-03-23T07:24:04;99827.31;;;10.14;100.00
12969;BME280;6549;53.128;8.182;2023-03-23T07:27:04;99828.50;;;10.20;100.00
12969;BME280;6549;53.128;8.182;2023-03-23T07:30:05;99828.91;;;10.15;100.00
12969;BME280;6549;53.128;8.182;2023-03-23T07:33:07;99839.91;;;10.12;100.00
12969;BME280;6549;53.128;8.182;2023-03-23T07:36:08;99851.66;;;10.12;100.00
12969;BME280;6549;53.128;8.182;2023-03-23T07:39:09;99846.16;;;10.19;100.00
12969;BME280;6549;53.128;8.182;2023-03-23T07:42:09;99846.84;;;10.27;100.00
12969;BME280;6549;53.128;8.182;2023-03-23T07:45:12;99852.31;;;10.34;100.00
12969;BME280;6549;53.128;8.182;2023-03-23T07:48:12;99853.44;;;10.36;100.00
12969;BME280;6549;53.128;8.182;2023-03-23T07:51:13;99856.22;;;10.33;100.00
12969;BME280;6549;53.128;8.182;2023-03-23T07:54:16;99860.94;;;10.32;100.00
12969;BME280;6549;53.128;8.182;2023-03-23T07:57:16;99862.50;;;10.33;100.00
12969;BME280;6549;53.128;8.182;2023-03-23T08:00:18;99865.56;;;10.43;100.00
12969;BME280;6549;53.128;8.182;2023-03-23T08:03:19;99867.78;;;10.58;100.00
12969;BME280;6549;53.128;8.182;2023-03-23T08:06:20;99867.69;;;10.69;100.00
12969;BME280;6549;53.128;8.182;2023-03-23T08:09:21;99880.94;;;10.77;100.00
12969;BME280;6549;53.128;8.182;2023-03-23T08:12:21;99870.66;;;10.85;100.00
12969;BME280;6549;53.128;8.182;2023-03-23T08:15:23;99872.13;;;10.93;100.00
12969;BME280;6549;53.128;8.182;2023-03-23T08:18:23;99886.66;;;10.97;100.00
12969;BME280;6549;53.128;8.182;2023-03-23T08:21:24;99876.75;;;11.03;100.00
12969;BME280;6549;53.128;8.182;2023-03-23T08:24:26;99896.38;;;11.05;100.00
12969;BME280;6549;53.128;8.182;2023-03-23T08:27:26;99888.91;;;11.06;100.00
12969;BME280;6549;53.128;8.182;2023-03-23T08:30:28;99888.47;;;11.07;100.00
12969;BME280;6549;53.128;8.182;2023-03-23T08:33:30;99895.94;;;11.07;100.00
12969;BME280;6549;53.128;8.182;2023-03-23T08:36:32;99898.69;;;11.10;100.00
12969;BME280;6549;53.128;8.182;2023-03-23T08:39:33;99906.44;;;11.19;100.00
12969;BME280;6549;53.128;8.182;2023-03-23T08:42:33;99902.47;;;11.23;100.00
12969;BME280;6549;53.128;8.182;2023-03-23T08:45:34;99890.97;;;11.28;100.00
12969;BME280;6549;53.128;8.182;2023-03-23T08:48:35;99901.50;;;11.37;100.00
12969;BME280;6549;53.128;8.182;2023-03-23T08:51:35;99900.53;;;11.51;100.00
12969;BME280;6549;53.128;8.182;2023-03-23T08:54:36;99906.66;;;11.65;100.00
12969;BME280;6549;53.128;8.182;2023-03-23T08:57:36;99905.81;;;11.72;100.00
12969;BME280;6549;53.128;8.182;2023-03-23T09:00:37;99911.59;;;11.81;100.00
12969;BME280;6549;53.128;8.182;2023-03-23T09:03:37;99910.31;;;11.89;100.00
12969;BME280;6549;53.128;8.182;2023-03-23T09:06:39;99916.47;;;11.97;100.00
12969;BME280;6549;53.128;8.182;2023-03-23T09:09:40;99912.69;;;11.87;100.00
12969;BME280;6549;53.128;8.182;2023-03-23T09:12:42;99913.13;;;11.82;100.00
12969;BME280;6549;53.128;8.182;2023-03-23T09:15:42;99921.78;;;11.84;100.00
12969;BME280;6549;53.128;8.182;2023-03-23T09:18:43;99914.66;;;11.87;100.00
12969;BME280;6549;53.128;8.182;2023-03-23T09:21:44;99920.47;;;11.92;100.00
12969;BME280;6549;53.128;8.182;2023-03-23T09:24:45;99913.72;;;11.97;100.00
12969;BME280;6549;53.128;8.182;2023-03-23T09:27:49;99921.13;;;12.03;100.00
12969;BME280;6549;53.128;8.182;2023-03-23T09:30:55;99914.41;;;12.04;100.00
12969;BME280;6549;53.128;8.182;2023-03-23T09:33:57;99916.81;;;12.02;100.00
12969;BME280;6549;53.128;8.182;2023-03-23T09:36:59;99925.72;;;12.10;100.00
12969;BME280;6549;53.128;8.182;2023-03-23T09:39:59;99923.75;;;12.10;100.00
12969;BME280;6549;53.128;8.182;2023-03-23T09:46:27;99937.28;;;12.28;100.00
12969;BME280;6549;53.128;8.182;2023-03-23T09:49:45;99942.72;;;12.32;100.00
12969;BME280;6549;53.128;8.182;2023-03-23T09:53:07;99933.16;;;12.40;100.00
12969;BME280;6549;53.128;8.182;2023-03-23T09:56:12;99937.84;;;12.43;100.00
12969;BME280;6549;53.128;8.182;2023-03-23T09:59:19;99940.22;;;12.41;100.00
12969;BME280;6549;53.128;8.182;2023-03-23T10:02:29;99953.69;;;12.35;100.00
12969;BME280;6549;53.128;8.182;2023-03-23T10:05:39;99946.88;;;12.43;100.00
12969;BME280;6549;53.128;8.182;2023-03-23T10:09:02;99970.00;;;12.49;100.00
12969;BME280;6549;53.128;8.182;2023-03-23T10:12:29;99964.56;;;12.46;100.00
12969;BME280;6549;53.128;8.182;2023-03-23T10:15:30;99979.25;;;12.36;100.00
12969;BME280;6549;53.128;8.182;2023-03-23T10:18:41;99976.16;;;12.34;100.00
12969;BME280;6549;53.128;8.182;2023-03-23T10:21:51;99972.69;;;12.30;100.00
12969;BME280;6549;53.128;8.182;2023-03-23T10:28:13;99967.94;;;12.30;100.00
12969;BME280;6549;53.128;8.182;2023-03-23T10:31:21;99979.84;;;12.24;100.00
12969;BME280;6549;53.128;8.182;2023-03-23T10:34:39;99982.97;;;12.26;100.00
12969;BME280;6549;53.128;8.182;2023-03-23T10:37:45;99977.53;;;12.19;100.00
12969;BME280;6549;53.128;8.182;2023-03-23T10:40:57;99950.41;;;12.17;100.00
12969;BME280;6549;53.128;8.182;2023-03-23T10:43:59;99981.19;;;12.39;100.00
12969;BME280;6549;53.128;8.182;2023-03-23T10:47:05;99986.19;;;12.47;100.00
12969;BME280;6549;53.128;8.182;2023-03-23T10:50:13;99979.44;;;12.52;100.00
12969;BME280;6549;53.128;8.182;2023-03-23T10:53:23;99983.38;;;12.51;100.00
12969;BME280;6549;53.128;8.182;2023-03-23T10:56:27;99970.91;;;12.43;100.00
12969;BME280;6549;53.128;8.182;2023-03-23T10:59:29;99967.31;;;12.46;100.00
12969;BME280;6549;53.128;8.182;2023-03-23T11:02:39;99974.16;;;12.61;100.00
12969;BME280;6549;53.128;8.182;2023-03-23T11:05:47;99990.00;;;12.80;100.00
12969;BME280;6549;53.128;8.182;2023-03-23T11:09:13;99989.03;;;12.90;100.00
12969;BME280;6549;53.128;8.182;2023-03-23T11:12:18;99986.63;;;12.92;100.00
12969;BME280;6549;53.128;8.182;2023-03-23T11:21:38;99983.06;;;14.17;100.00
12969;BME280;6549;53.128;8.182;2023-03-23T11:24:45;99975.13;;;14.71;100.00
12969;BME280;6549;53.128;8.182;2023-03-23T11:27:45;99986.38;;;14.64;100.00
12969;BME280;6549;53.128;8.182;2023-03-23T11:30:46;99966.94;;;14.32;100.00
12969;BME280;6549;53.128;8.182;2023-03-23T11:33:53;99975.47;;;14.21;100.00
12969;BME280;6549;53.128;8.182;2023-03-23T11:36:59;99973.44;;;14.06;100.00
12969;BME280;6549;53.128;8.182;2023-03-23T11:43:13;99972.69;;;14.41;100.00
12969;BME280;6549;53.128;8.182;2023-03-23T11:46:24;99977.34;;;14.44;100.00
12969;BME280;6549;53.128;8.182;2023-03-23T11:49:48;99973.47;;;14.58;100.00
12969;BME280;6549;53.128;8.182;2023-03-23T11:53:14;99971.75;;;14.80;100.00
12969;BME280;6549;53.128;8.182;2023-03-23T11:59:34;99966.13;;;14.51;100.00
12969;BME280;6549;53.128;8.182;2023-03-23T12:12:12;99983.56;;;14.48;100.00
12969;BME280;6549;53.128;8.182;2023-03-23T12:18:34;99972.34;;;14.55;100.00
12969;BME280;6549;53.128;8.182;2023-03-23T12:21:52;99975.88;;;14.39;100.00
12969;BME280;6549;53.128;8.182;2023-03-23T12:31:49;99985.31;;;14.74;100.00
12969;BME280;6549;53.128;8.182;2023-03-23T12:35:25;99980.13;;;14.93;100.00
12969;BME280;6549;53.128;8.182;2023-03-23T12:45:19;99980.63;;;15.49;100.00
12969;BME280;6549;53.128;8.182;2023-03-23T12:48:48;99973.63;;;15.44;100.00
12969;BME280;6549;53.128;8.182;2023-03-23T12:55:31;99977.88;;;15.49;100.00
12969;BME280;6549;53.128;8.182;2023-03-23T12:58:36;99985.03;;;15.46;100.00
12969;BME280;6549;53.128;8.182;2023-03-23T13:01:45;99969.50;;;15.52;100.00
12969;BME280;6549;53.128;8.182;2023-03-23T13:04:51;99965.72;;;15.88;100.00
12969;BME280;6549;53.128;8.182;2023-03-23T13:11:24;99978.06;;;16.37;100.00
12969;BME280;6549;53.128;8.182;2023-03-23T13:17:59;99985.50;;;16.15;100.00
12969;BME280;6549;53.128;8.182;2023-03-23T13:21:12;99986.41;;;15.83;100.00
12969;BME280;6549;53.128;8.182;2023-03-23T13:24:19;100001.41;;;15.57;100.00
12969;BME280;6549;53.128;8.182;2023-03-23T13:27:28;99985.75;;;15.50;100.00
12969;BME280;6549;53.128;8.182;2023-03-23T13:30:29;99986.53;;;15.80;100.00
12969;BME280;6549;53.128;8.182;2023-03-23T13:33:32;99990.44;;;16.07;100.00
12969;BME280;6549;53.128;8.182;2023-03-23T13:36:51;99987.13;;;16.12;100.00
12969;BME280;6549;53.128;8.182;2023-03-23T13:39:53;99987.69;;;16.20;100.00
12969;BME280;6549;53.128;8.182;2023-03-23T13:42:58;99976.72;;;16.29;100.00
12969;BME280;6549;53.128;8.182;2023-03-23T13:49:20;99982.38;;;16.38;100.00
12969;BME280;6549;53.128;8.182;2023-03-23T13:56:06;100001.34;;;16.27;100.00
12969;BME280;6549;53.128;8.182;2023-03-23T13:59:13;99984.22;;;16.03;100.00
12969;BME280;6549;53.128;8.182;2023-03-23T14:02:29;99980.03;;;16.11;100.00
12969;BME280;6549;53.128;8.182;2023-03-23T14:05:36;99979.72;;;16.22;100.00
12969;BME280;6549;53.128;8.182;2023-03-23T14:08:40;99975.00;;;15.94;100.00
12969;BME280;6549;53.128;8.182;2023-03-23T14:11:55;99971.13;;;15.91;100.00
12969;BME280;6549;53.128;8.182;2023-03-23T14:15:00;99983.81;;;16.17;100.00
12969;BME280;6549;53.128;8.182;2023-03-23T14:18:03;99985.94;;;16.26;100.00
12969;BME280;6549;53.128;8.182;2023-03-23T14:21:05;99991.03;;;16.40;100.00
12969;BME280;6549;53.128;8.182;2023-03-23T14:24:10;99985.38;;;16.44;100.00
12969;BME280;6549;53.128;8.182;2023-03-23T14:30:20;99983.28;;;16.35;100.00
12969;BME280;6549;53.128;8.182;2023-03-23T14:33:20;99998.22;;;16.25;100.00
12969;BME280;6549;53.128;8.182;2023-03-23T14:36:27;100000.34;;;16.34;100.00
12969;BME280;6549;53.128;8.182;2023-03-23T14:39:32;100001.66;;;16.29;100.00
12969;BME280;6549;53.128;8.182;2023-03-23T14:42:35;99975.94;;;16.29;100.00
12969;BME280;6549;53.128;8.182;2023-03-23T14:45:36;99993.16;;;16.36;100.00
12969;BME280;6549;53.128;8.182;2023-03-23T14:48:37;99999.00;;;16.38;100.00
12969;BME280;6549;53.128;8.182;2023-03-23T14:51:47;100001.34;;;16.27;100.00
12969;BME280;6549;53.128;8.182;2023-03-23T14:54:47;99996.31;;;15.97;100.00
12969;BME280;6549;53.128;8.182;2023-03-23T14:57:48;100011.88;;;15.78;100.00
12969;BME280;6549;53.128;8.182;2023-03-23T15:03:57;100004.78;;;15.48;100.00
12969;BME280;6549;53.128;8.182;2023-03-23T15:07:02;100023.75;;;15.34;100.00
12969;BME280;6549;53.128;8.182;2023-03-23T15:10:07;100027.06;;;15.12;100.00
12969;BME280;6549;53.128;8.182;2023-03-23T15:13:12;100039.94;;;15.03;100.00
12969;BME280;6549;53.128;8.182;2023-03-23T15:16:22;100037.47;;;14.40;100.00
12969;BME280;6549;53.128;8.182;2023-03-23T15:19:26;100036.63;;;14.04;100.00
12969;BME280;6549;53.128;8.182;2023-03-23T15:22:30;100024.88;;;13.80;100.00
12969;BME280;6549;53.128;8.182;2023-03-23T15:25:31;100015.97;;;13.92;100.00
12969;BME280;6549;53.128;8.182;2023-03-23T15:28:32;100013.69;;;14.07;100.00
12969;BME280;6549;53.128;8.182;2023-03-23T15:31:38;100022.09;;;14.19;100.00
12969;BME280;6549;53.128;8.182;2023-03-23T15:34:38;100033.78;;;14.27;100.00
12969;BME280;6549;53.128;8.182;2023-03-23T15:37:45;100038.50;;;14.26;100.00
12969;BME280;6549;53.128;8.182;2023-03-23T15:40:49;100036.81;;;14.13;100.00
12969;BME280;6549;53.128;8.182;2023-03-23T15:43:52;100046.13;;;14.03;100.00
12969;BME280;6549;53.128;8.182;2023-03-23T15:47:02;100047.97;;;13.89;100.00
12969;BME280;6549;53.128;8.182;2023-03-23T15:50:15;100045.72;;;13.84;100.00
12969;BME280;6549;53.128;8.182;2023-03-23T15:53:27;100042.09;;;13.87;100.00
12969;BME280;6549;53.128;8.182;2023-03-23T15:56:27;100037.84;;;13.83;100.00
12969;BME280;6549;53.128;8.182;2023-03-23T15:59:29;100045.41;;;13.79;100.00
12969;BME280;6549;53.128;8.182;2023-03-23T16:02:29;100012.63;;;13.81;100.00
12969;BME280;6549;53.128;8.182;2023-03-23T16:05:31;99994.84;;;13.82;100.00
12969;BME280;6549;53.128;8.182;2023-03-23T16:08:31;99995.56;;;13.86;100.00
12969;BME280;6549;53.128;8.182;2023-03-23T16:11:32;99992.88;;;13.82;100.00
12969;BME280;6549;53.128;8.182;2023-03-23T16:14:33;99990.19;;;13.79;100.00
12969;BME280;6549;53.128;8.182;2023-03-23T16:17:33;99992.59;;;13.77;100.00
12969;BME280;6549;53.128;8.182;2023-03-23T16:20:33;99993.72;;;13.79;100.00
12969;BME280;6549;53.128;8.182;2023-03-23T16:23:34;100000.09;;;13.76;100.00
12969;BME280;6549;53.128;8.182;2023-03-23T16:26:35;100019.06;;;13.74;100.00
12969;BME280;6549;53.128;8.182;2023-03-23T16:29:36;100014.13;;;13.66;100.00
12969;BME280;6549;53.128;8.182;2023-03-23T16:32:36;100024.00;;;13.63;100.00
12969;BME280;6549;53.128;8.182;2023-03-23T16:35:37;100015.94;;;13.53;100.00
12969;BME280;6549;53.128;8.182;2023-03-23T16:38:38;100021.16;;;13.47;100.00
12969;BME280;6549;53.128;8.182;2023-03-23T16:41:39;100016.06;;;13.45;100.00
12969;BME280;6549;53.128;8.182;2023-03-23T16:44:40;100014.94;;;13.43;100.00
12969;BME280;6549;53.128;8.182;2023-03-23T16:47:41;100009.34;;;13.46;100.00
12969;BME280;6549;53.128;8.182;2023-03-23T16:50:43;100000.44;;;13.39;100.00
12969;BME280;6549;53.128;8.182;2023-03-23T16:53:43;100015.56;;;13.31;100.00
12969;BME280;6549;53.128;8.182;2023-03-23T16:56:43;100017.66;;;13.23;100.00
12969;BME280;6549;53.128;8.182;2023-03-23T16:59:45;100026.78;;;13.20;100.00
12969;BME280;6549;53.128;8.182;2023-03-23T17:02:48;100023.72;;;13.15;100.00
12969;BME280;6549;53.128;8.182;2023-03-23T17:05:50;100032.69;;;12.95;100.00
12969;BME280;6549;53.128;8.182;2023-03-23T17:08:51;100040.41;;;12.81;100.00
12969;BME280;6549;53.128;8.182;2023-03-23T17:11:52;100040.56;;;12.70;100.00
12969;BME280;6549;53.128;8.182;2023-03-23T17:14:52;100043.06;;;12.61;100.00
12969;BME280;6549;53.128;8.182;2023-03-23T17:17:53;100041.59;;;12.53;100.00
12969;BME280;6549;53.128;8.182;2023-03-23T17:20:54;100044.13;;;12.40;100.00
12969;BME280;6549;53.128;8.182;2023-03-23T17:23:55;100042.72;;;12.29;100.00
12969;BME280;6549;53.128;8.182;2023-03-23T17:26:55;100057.41;;;12.19;100.00
12969;BME280;6549;53.128;8.182;2023-03-23T17:29:55;100048.03;;;12.16;100.00